createdAt,value
2017-09-14T00:01:34.854Z,98897.13
2017-09-14T00:04:05.773Z,98899.84
2017-09-14T00:06:38.267Z,98899.97
2017-09-14T00:09:12.889Z,98892.14
2017-09-14T00:11:44.908Z,98892.28
2017-09-14T00:14:19.622Z,98891.40
2017-09-14T00:16:51.967Z,98891.94
2017-09-14T00:19:25.709Z,98894.72
2017-09-14T00:21:59.245Z,98893.09
2017-09-14T00:24:29.935Z,98892.21
2017-09-14T00:27:02.924Z,98903.86
2017-09-14T00:29:34.583Z,98904.88
2017-09-14T00:32:07.176Z,98898.13
2017-09-14T00:34:40.338Z,98895.22
2017-09-14T00:37:13.639Z,98903.55
2017-09-14T00:39:45.718Z,98899.62
2017-09-14T00:42:17.918Z,98891.62
2017-09-14T00:44:50.869Z,98892.16
2017-09-14T00:47:23.464Z,98899.55
2017-09-14T00:49:58.970Z,98894.88
2017-09-14T00:52:31.982Z,98896.30
2017-09-14T00:55:05.535Z,98906.18
2017-09-14T00:57:37.933Z,98895.89
2017-09-14T01:00:09.375Z,98889.17
2017-09-14T01:02:45.162Z,98905.67
2017-09-14T01:05:18.793Z,98900.72
2017-09-14T01:07:52.428Z,98900.45
2017-09-14T01:10:25.301Z,98891.50
2017-09-14T01:12:57.317Z,98894.14
2017-09-14T01:15:30.553Z,98902.74
2017-09-14T01:18:01.133Z,98898.47
2017-09-14T01:20:33.860Z,98901.25
2017-09-14T01:23:05.516Z,98895.22
2017-09-14T01:25:37.428Z,98893.16
2017-09-14T01:28:10.221Z,98909.67
2017-09-14T01:30:44.031Z,98906.49
2017-09-14T01:33:15.424Z,98902.48
2017-09-14T01:35:47.540Z,98908.92
2017-09-14T01:38:22.627Z,98904.72
2017-09-14T01:40:54.454Z,98897.48
2017-09-14T01:43:26.384Z,98915.55
2017-09-14T01:45:58.012Z,98901.19
2017-09-14T01:48:28.867Z,98906.27
2017-09-14T01:51:06.271Z,98914.47
2017-09-14T01:53:40.213Z,98898.62
2017-09-14T01:56:13.722Z,98907.62
2017-09-14T01:58:47.840Z,98899.09
2017-09-14T02:01:21.134Z,98905.19
2017-09-14T02:03:53.207Z,98896.18
2017-09-14T02:06:25.710Z,98888.46
2017-09-14T02:08:57.912Z,98893.64
2017-09-14T02:11:30.231Z,98885.98
2017-09-14T02:13:59.798Z,98873.53
2017-09-14T02:16:34.037Z,98887.34
2017-09-14T02:19:05.122Z,98894.52
2017-09-14T02:21:40.000Z,98891.67
2017-09-14T02:24:11.800Z,98891.20
2017-09-14T02:26:44.383Z,98897.77
2017-09-14T02:29:18.289Z,98890.86
2017-09-14T02:31:52.282Z,98892.68
2017-09-14T02:34:22.968Z,98892.62
2017-09-14T02:36:54.167Z,98891.47
2017-09-14T02:39:27.736Z,98892.75
2017-09-14T02:41:57.974Z,98894.98
2017-09-14T02:44:31.514Z,98902.70
2017-09-14T02:47:05.404Z,98899.31
2017-09-14T02:49:36.085Z,98893.83
2017-09-14T02:52:07.496Z,98896.59
2017-09-14T02:54:41.387Z,98902.48
2017-09-14T02:57:14.368Z,98888.34
2017-09-14T02:59:46.351Z,98898.63
2017-09-14T03:02:17.146Z,98902.48
2017-09-14T03:04:49.756Z,98892.88
2017-09-14T03:07:23.821Z,98895.11
2017-09-14T03:09:54.544Z,98909.33
2017-09-14T03:12:27.044Z,98901.61
2017-09-14T03:14:58.155Z,98895.71
2017-09-14T03:17:30.419Z,98898.80
2017-09-14T03:20:01.730Z,98896.66
2017-09-14T03:22:33.175Z,98895.13
2017-09-14T03:25:06.158Z,98897.83
2017-09-14T03:27:38.516Z,98896.89
2017-09-14T03:30:10.730Z,98900.34
2017-09-14T03:32:43.429Z,98896.48
2017-09-14T03:35:15.383Z,98888.89
2017-09-14T03:37:47.098Z,98894.52
2017-09-14T03:40:19.435Z,98896.48
2017-09-14T03:42:53.619Z,98900.59
2017-09-14T03:45:28.952Z,98894.70
2017-09-14T03:48:01.313Z,98892.27
2017-09-14T03:50:36.214Z,98901.20
2017-09-14T03:53:07.348Z,98899.17
2017-09-14T03:55:40.513Z,98893.09
2017-09-14T03:58:14.087Z,98894.92
2017-09-14T04:00:47.023Z,98901.48
2017-09-14T04:03:20.440Z,98901.95
2017-09-14T04:05:53.021Z,98903.70
2017-09-14T04:08:25.941Z,98902.86
2017-09-14T04:10:58.837Z,98902.45
2017-09-14T04:13:30.602Z,98899.89
2017-09-14T04:16:01.660Z,98910.70
2017-09-14T04:18:37.631Z,98900.17
2017-09-14T04:21:09.985Z,98911.59
2017-09-14T04:23:42.691Z,98914.11
2017-09-14T04:26:16.399Z,98915.86
2017-09-14T04:28:47.884Z,98931.70
2017-09-14T04:31:19.202Z,98923.77
2017-09-14T04:33:51.619Z,98916.94
2017-09-14T04:36:23.975Z,98926.53
2017-09-14T04:38:55.067Z,98930.39
2017-09-14T04:41:25.721Z,98925.31
2017-09-14T04:43:57.928Z,98931.73
2017-09-14T04:46:27.889Z,98933.84
2017-09-14T04:48:57.499Z,98929.45
2017-09-14T04:51:29.204Z,98920.98
2017-09-14T04:54:01.623Z,98929.98
2017-09-14T04:56:35.362Z,98929.16
2017-09-14T04:59:05.426Z,98923.42
2017-09-14T05:01:39.898Z,98925.31
2017-09-14T05:04:11.729Z,98922.73
2017-09-14T05:06:44.619Z,98925.72
2017-09-14T05:09:18.059Z,98927.06
2017-09-14T05:11:51.384Z,98933.15
2017-09-14T05:14:25.117Z,98939.98
2017-09-14T05:16:57.687Z,98931.39
2017-09-14T05:19:27.935Z,98934.84
2017-09-14T05:21:57.844Z,98936.19
2017-09-14T05:24:30.057Z,98934.84
2017-09-14T05:27:00.702Z,98927.63
2017-09-14T05:29:35.701Z,98941.27
2017-09-14T05:32:09.057Z,98932.96
2017-09-14T05:34:42.407Z,98942.02
2017-09-14T05:37:15.610Z,98941.95
2017-09-14T05:39:46.229Z,98938.04
2017-09-14T05:42:17.857Z,98941.02
2017-09-14T05:44:54.643Z,98943.66
2017-09-14T05:47:28.204Z,98944.74
2017-09-14T05:50:00.322Z,98943.99
2017-09-14T05:52:32.521Z,98932.83
2017-09-14T05:55:05.589Z,98931.08
2017-09-14T05:57:36.732Z,98940.95
2017-09-14T06:00:08.681Z,98935.06
2017-09-14T06:02:40.590Z,98942.17
2017-09-14T06:05:13.656Z,98946.84
2017-09-14T06:07:46.007Z,98945.37
2017-09-14T06:10:17.253Z,98938.00
2017-09-14T06:12:54.451Z,98937.59
2017-09-14T06:15:26.304Z,98937.46
2017-09-14T06:17:57.724Z,98928.05
2017-09-14T06:20:36.155Z,98924.60
2017-09-14T06:23:08.718Z,98926.33
2017-09-14T06:25:44.676Z,98924.38
2017-09-14T06:28:16.967Z,98925.09
2017-09-14T06:30:48.577Z,98921.64
2017-09-14T06:33:18.114Z,98914.61
2017-09-14T06:38:36.878Z,98913.06
2017-09-14T06:41:10.110Z,98917.70
2017-09-14T06:43:41.911Z,98917.58
2017-09-14T06:46:15.621Z,98927.67
2017-09-14T06:48:45.255Z,98919.02
2017-09-14T06:51:16.912Z,98928.70
2017-09-14T06:53:48.733Z,98919.37
2017-09-14T06:56:20.964Z,98925.10
2017-09-14T06:58:56.681Z,98936.14
2017-09-14T07:01:29.149Z,98925.78
2017-09-14T07:04:02.938Z,98925.93
2017-09-14T07:06:41.072Z,98925.05
2017-09-14T07:09:15.756Z,98933.48
2017-09-14T07:11:47.892Z,98930.78
2017-09-14T07:14:18.828Z,98933.09
2017-09-14T07:16:51.186Z,98936.01
2017-09-14T07:19:25.505Z,98941.91
2017-09-14T07:21:57.078Z,98954.41
2017-09-14T07:24:29.680Z,98956.10
2017-09-14T07:27:01.404Z,98944.73
2017-09-14T07:29:32.669Z,98957.81
2017-09-14T07:32:02.688Z,98957.48
2017-09-14T07:34:34.932Z,98957.72
2017-09-14T07:37:07.565Z,98967.41
2017-09-14T07:39:44.721Z,98964.37
2017-09-14T07:42:17.659Z,98981.69
2017-09-14T07:44:51.031Z,98983.06
2017-09-14T07:47:25.991Z,98988.69
2017-09-14T07:49:58.187Z,98991.78
2017-09-14T07:52:30.694Z,99003.92
2017-09-14T07:55:03.440Z,98994.41
2017-09-14T07:57:37.065Z,99001.13
2017-09-14T08:00:10.694Z,99007.70
2017-09-14T08:02:43.552Z,99006.42
2017-09-14T08:05:17.000Z,99015.61
2017-09-14T08:07:51.390Z,99005.10
2017-09-14T08:10:30.817Z,99015.08
2017-09-14T08:13:03.440Z,99018.56
2017-09-14T08:15:37.258Z,99019.59
2017-09-14T08:18:10.635Z,99006.44
2017-09-14T08:20:42.457Z,99000.75
2017-09-14T08:23:14.713Z,99021.12
2017-09-14T08:25:54.540Z,99016.11
2017-09-14T08:31:12.420Z,99023.20
2017-09-14T08:33:45.498Z,99022.38
2017-09-14T08:36:18.335Z,99034.12
2017-09-14T08:38:51.458Z,99032.89
2017-09-14T08:41:24.024Z,99036.89
2017-09-14T08:43:55.391Z,99034.83
2017-09-14T08:46:27.686Z,99039.98
2017-09-14T08:49:03.786Z,99040.59
2017-09-14T08:51:36.947Z,99045.84
2017-09-14T08:54:14.506Z,99040.75
2017-09-14T08:56:48.199Z,99040.75
2017-09-14T08:59:18.940Z,99042.13
2017-09-14T09:01:51.576Z,99035.55
2017-09-14T09:04:24.816Z,99029.64
2017-09-14T09:06:56.787Z,99052.06
2017-09-14T09:09:27.642Z,99038.01
2017-09-14T09:12:02.138Z,99034.13
2017-09-14T09:14:35.471Z,99030.69
2017-09-14T09:17:04.151Z,99045.48
2017-09-14T09:19:37.122Z,99037.95
2017-09-14T09:22:09.334Z,99028.78
2017-09-14T09:24:42.335Z,99033.69
2017-09-14T09:27:13.737Z,99041.02
2017-09-14T09:29:45.463Z,99030.48
2017-09-14T09:32:16.854Z,99047.34
2017-09-14T09:34:50.936Z,99047.75
2017-09-14T09:37:24.833Z,99047.61
2017-09-14T09:39:59.328Z,99044.00
2017-09-14T09:42:32.363Z,99046.72
2017-09-14T09:45:05.268Z,99045.90
2017-09-14T09:47:38.767Z,99040.12
2017-09-14T09:50:10.561Z,99042.52
2017-09-14T09:52:43.831Z,99042.52
2017-09-14T09:55:14.938Z,99036.93
2017-09-14T09:57:48.983Z,99043.05
2017-09-14T10:00:20.763Z,99030.95
2017-09-14T10:02:53.403Z,99028.84
2017-09-14T10:05:27.476Z,99044.80
2017-09-14T10:08:00.290Z,99025.27
2017-09-14T10:10:33.016Z,99031.98
2017-09-14T10:13:05.923Z,99041.62
2017-09-14T10:15:39.154Z,99045.20
2017-09-14T10:18:11.172Z,99047.98
2017-09-14T10:20:43.827Z,99052.62
2017-09-14T10:23:18.776Z,99057.51
2017-09-14T10:25:58.631Z,99059.88
2017-09-14T10:28:32.635Z,99058.03
2017-09-14T10:31:04.162Z,99058.56
2017-09-14T10:33:36.290Z,99053.99
2017-09-14T10:36:07.172Z,99062.67
2017-09-14T10:38:40.515Z,99060.58
2017-09-14T10:41:13.780Z,99057.16
2017-09-14T10:43:46.604Z,99066.16
2017-09-14T10:46:19.327Z,99062.95
2017-09-14T10:48:51.493Z,99056.47
2017-09-14T10:51:25.101Z,99068.77
2017-09-14T10:53:57.001Z,99078.55
2017-09-14T10:56:31.272Z,99083.19
2017-09-14T10:59:03.948Z,99074.75
2017-09-14T11:01:37.405Z,99093.50
2017-09-14T11:04:10.616Z,99093.29
2017-09-14T11:06:44.689Z,99087.87
2017-09-14T11:09:15.938Z,99085.95
2017-09-14T11:11:50.797Z,99093.84
2017-09-14T11:14:22.699Z,99090.16
2017-09-14T11:16:55.409Z,99094.90
2017-09-14T11:19:32.701Z,99097.20
2017-09-14T11:22:05.320Z,99102.73
2017-09-14T11:24:38.500Z,99094.28
2017-09-14T11:27:12.417Z,99097.46
2017-09-14T11:29:45.518Z,99098.12
2017-09-14T11:32:18.190Z,99110.09
2017-09-14T11:34:50.371Z,99117.11
2017-09-14T11:37:23.486Z,99099.42
2017-09-14T11:39:56.083Z,99105.19
2017-09-14T11:42:28.782Z,99096.14
2017-09-14T11:45:01.909Z,99099.33
2017-09-14T11:47:33.001Z,99088.98
2017-09-14T11:50:03.932Z,99092.09
2017-09-14T11:52:35.548Z,99095.75
2017-09-14T11:55:08.667Z,99093.28
2017-09-14T11:57:39.363Z,99103.63
2017-09-14T12:00:12.913Z,99095.94
2017-09-14T12:02:44.907Z,99100.41
2017-09-14T12:05:16.859Z,99091.55
2017-09-14T12:07:50.428Z,99102.99
2017-09-14T12:10:22.317Z,99096.31
2017-09-14T12:12:55.213Z,99090.84
2017-09-14T12:15:27.692Z,99098.30
2017-09-14T12:17:59.809Z,99093.13
2017-09-14T12:20:32.173Z,99105.25
2017-09-14T12:23:04.059Z,99096.19
2017-09-14T12:25:42.620Z,99107.05
2017-09-14T12:28:16.734Z,99108.72
2017-09-14T12:30:49.852Z,99112.12
2017-09-14T12:33:21.637Z,99106.09
2017-09-14T12:35:53.295Z,99115.73
2017-09-14T12:38:25.948Z,99117.36
2017-09-14T12:40:59.285Z,99112.37
2017-09-14T12:43:32.893Z,99117.57
2017-09-14T12:46:05.973Z,99115.02
2017-09-14T12:48:38.276Z,99112.66
2017-09-14T12:51:11.677Z,99115.64
2017-09-14T12:53:44.266Z,99118.41
2017-09-14T12:56:16.197Z,99119.71
2017-09-14T12:58:49.100Z,99121.74
2017-09-14T13:01:21.519Z,99125.80
2017-09-14T13:03:54.309Z,99121.59
2017-09-14T13:06:26.974Z,99141.22
2017-09-14T13:09:00.041Z,99119.56
2017-09-14T13:11:34.417Z,99128.77
2017-09-14T13:14:06.673Z,99133.69
2017-09-14T13:16:41.319Z,99130.47
2017-09-14T13:19:12.772Z,99124.52
2017-09-14T13:21:44.191Z,99124.36
2017-09-14T13:24:17.645Z,99127.16
2017-09-14T13:26:49.585Z,99135.45
2017-09-14T13:29:20.558Z,99132.70
2017-09-14T13:31:54.618Z,99151.23
2017-09-14T13:34:29.074Z,99143.77
2017-09-14T13:37:01.557Z,99149.83
2017-09-14T13:39:33.591Z,99158.73
2017-09-14T13:42:03.976Z,99160.52
2017-09-14T13:44:36.963Z,99156.48
2017-09-14T13:47:08.532Z,99164.80
2017-09-14T13:49:40.001Z,99160.03
2017-09-14T13:52:15.539Z,99163.88
2017-09-14T13:54:47.181Z,99166.47
2017-09-14T13:57:20.670Z,99168.38
2017-09-14T13:59:54.631Z,99169.48
2017-09-14T14:02:30.338Z,99176.92
2017-09-14T14:05:02.536Z,99178.55
2017-09-14T14:07:33.841Z,99184.94
2017-09-14T14:10:08.910Z,99187.34
2017-09-14T14:12:42.698Z,99189.62
2017-09-14T14:15:19.167Z,99191.89
2017-09-14T14:17:51.888Z,99192.22
2017-09-14T14:20:23.793Z,99199.17
2017-09-14T14:22:58.390Z,99204.98
2017-09-14T14:25:30.544Z,99205.57
2017-09-14T14:28:04.128Z,99218.25
2017-09-14T14:30:35.263Z,99211.45
2017-09-14T14:33:06.891Z,99218.08
2017-09-14T14:35:39.423Z,99217.75
2017-09-14T14:38:12.538Z,99229.69
2017-09-14T14:40:45.799Z,99223.89
2017-09-14T14:43:16.413Z,99226.63
2017-09-14T14:45:49.168Z,99233.17
2017-09-14T14:48:21.186Z,99242.38
2017-09-14T14:50:55.018Z,99234.20
2017-09-14T14:53:30.992Z,99243.45
2017-09-14T14:56:08.348Z,99230.58
2017-09-14T14:58:39.402Z,99235.35
2017-09-14T15:01:12.377Z,99240.38
2017-09-14T15:03:45.794Z,99246.37
2017-09-14T15:06:19.583Z,99249.80
2017-09-14T15:08:50.204Z,99255.61
2017-09-14T15:11:32.792Z,99255.76
2017-09-14T15:14:04.909Z,99261.63
2017-09-14T15:16:37.426Z,99268.25
2017-09-14T15:19:08.038Z,99274.52
2017-09-14T15:21:40.329Z,99268.05
2017-09-14T15:24:10.391Z,99263.95
2017-09-14T15:26:43.309Z,99263.61
2017-09-14T15:29:15.510Z,99265.87
2017-09-14T15:31:46.505Z,99263.47
2017-09-14T15:34:19.724Z,99270.44
2017-09-14T15:36:53.331Z,99277.65
2017-09-14T15:39:30.423Z,99282.84
2017-09-14T15:42:03.521Z,99273.45
2017-09-14T15:44:39.912Z,99270.86
2017-09-14T15:47:11.708Z,99271.15
2017-09-14T15:49:49.074Z,99274.68
2017-09-14T15:52:22.421Z,99269.80
2017-09-14T15:54:52.503Z,99274.77
2017-09-14T15:57:22.740Z,99268.30
2017-09-14T15:59:53.008Z,99270.62
2017-09-14T16:02:24.106Z,99272.27
2017-09-14T16:04:53.945Z,99278.67
2017-09-14T16:07:25.596Z,99270.77
2017-09-14T16:09:58.988Z,99270.16
2017-09-14T16:12:34.301Z,99271.86
2017-09-14T16:15:05.610Z,99269.36
2017-09-14T16:17:37.442Z,99267.70
2017-09-14T16:20:11.313Z,99269.75
2017-09-14T16:22:42.666Z,99269.55
2017-09-14T16:25:14.524Z,99275.18
2017-09-14T16:27:47.958Z,99274.71
2017-09-14T16:30:18.897Z,99282.27
2017-09-14T16:32:52.419Z,99272.95
2017-09-14T16:35:24.023Z,99278.53
2017-09-14T16:38:01.959Z,99282.88
2017-09-14T16:40:33.908Z,99286.87
2017-09-14T16:43:05.023Z,99299.18
2017-09-14T16:45:36.800Z,99289.05
2017-09-14T16:48:06.574Z,99287.49
2017-09-14T16:50:43.309Z,99287.97
2017-09-14T16:53:16.775Z,99296.81
2017-09-14T16:55:54.533Z,99297.29
2017-09-14T16:58:34.094Z,99303.85
2017-09-14T17:04:01.828Z,99305.02
2017-09-14T17:06:44.630Z,99313.31
2017-09-14T17:09:19.834Z,99304.45
2017-09-14T17:11:53.629Z,99315.45
2017-09-14T17:14:34.254Z,99311.48
2017-09-14T17:17:14.998Z,99314.72
2017-09-14T17:20:03.988Z,99319.00
2017-09-14T17:22:45.714Z,99316.14
2017-09-14T17:25:25.800Z,99325.25
2017-09-14T17:27:58.927Z,99334.12
2017-09-14T17:30:34.335Z,99336.97
2017-09-14T17:33:08.947Z,99334.45
2017-09-14T17:38:32.027Z,99350.45
2017-09-14T17:41:10.067Z,99346.30
2017-09-14T17:43:48.697Z,99345.34
2017-09-14T17:46:22.520Z,99342.59
2017-09-14T17:49:07.746Z,99346.05
2017-09-14T17:51:45.655Z,99352.56
2017-09-14T17:54:33.344Z,99352.56
2017-09-14T17:57:15.954Z,99361.05
2017-09-14T17:59:54.245Z,99363.42
2017-09-14T18:02:34.268Z,99368.20
2017-09-14T18:05:09.242Z,99373.49
2017-09-14T18:07:55.755Z,99377.36
2017-09-14T18:16:12.835Z,99396.80
2017-09-14T18:21:32.889Z,99394.69
2017-09-14T18:24:11.697Z,99406.09
2017-09-14T18:26:53.130Z,99409.21
2017-09-14T18:32:20.775Z,99414.83
2017-09-14T18:35:01.302Z,99416.12
2017-09-14T18:37:36.386Z,99424.73
2017-09-14T18:40:14.448Z,99430.00
2017-09-14T18:42:50.472Z,99442.62
2017-09-14T18:45:33.960Z,99441.99
2017-09-14T18:48:05.400Z,99445.23
2017-09-14T18:50:41.547Z,99448.42
2017-09-14T18:53:14.494Z,99450.78
2017-09-14T18:55:46.998Z,99449.56
2017-09-14T18:58:23.520Z,99462.27
2017-09-14T19:00:59.142Z,99458.52
2017-09-14T19:03:35.200Z,99468.97
2017-09-14T19:06:15.267Z,99467.53
2017-09-14T19:08:51.300Z,99476.84
2017-09-14T19:11:28.527Z,99477.43
2017-09-14T19:14:00.369Z,99470.10
2017-09-14T19:16:39.867Z,99480.42
2017-09-14T19:19:16.098Z,99482.72
2017-09-14T19:21:51.631Z,99491.11
2017-09-14T19:24:28.594Z,99486.77
2017-09-14T19:27:00.960Z,99494.79
2017-09-14T19:29:31.432Z,99491.52
2017-09-14T19:32:04.767Z,99493.84
2017-09-14T19:34:36.732Z,99503.53
2017-09-14T19:37:18.387Z,99501.45
2017-09-14T19:39:53.790Z,99503.13
2017-09-14T19:42:25.720Z,99509.92
2017-09-14T19:44:59.444Z,99502.25
2017-09-14T19:47:30.491Z,99504.64
2017-09-14T19:50:03.216Z,99507.63
2017-09-14T19:52:35.817Z,99508.09
2017-09-14T19:55:07.072Z,99511.55
2017-09-14T19:57:38.448Z,99516.05
2017-09-14T20:00:10.913Z,99525.48
2017-09-14T20:02:42.761Z,99525.48
2017-09-14T20:05:17.843Z,99525.27
2017-09-14T20:08:00.096Z,99526.14
2017-09-14T20:10:35.341Z,99528.06
2017-09-14T20:13:08.881Z,99537.56
2017-09-14T20:15:41.935Z,99531.17
2017-09-14T20:18:15.147Z,99536.80
2017-09-14T20:20:46.576Z,99542.62
2017-09-14T20:23:18.643Z,99550.11
2017-09-14T20:25:53.435Z,99545.77
2017-09-14T20:28:26.339Z,99544.47
2017-09-14T20:33:39.247Z,99557.14
2017-09-14T20:36:11.795Z,99571.39
2017-09-14T20:38:44.373Z,99576.14
2017-09-14T20:41:19.222Z,99580.06
2017-09-14T20:43:53.213Z,99580.60
2017-09-14T20:46:25.669Z,99588.45
2017-09-14T20:48:58.551Z,99587.45
2017-09-14T20:51:39.720Z,99594.44
2017-09-14T20:54:15.889Z,99596.84
2017-09-14T20:56:49.884Z,99593.01
2017-09-14T20:59:24.604Z,99596.53
2017-09-14T21:01:58.767Z,99606.96
2017-09-14T21:04:36.135Z,99602.34
2017-09-14T21:07:08.477Z,99606.80
2017-09-14T21:09:41.822Z,99608.91
2017-09-14T21:12:14.845Z,99613.71
2017-09-14T21:14:47.890Z,99618.05
2017-09-14T21:17:25.758Z,99620.69
2017-09-14T21:19:59.320Z,99623.73
2017-09-14T21:22:30.410Z,99631.12
2017-09-14T21:25:04.323Z,99640.64
2017-09-14T21:27:44.071Z,99643.19
2017-09-14T21:30:15.790Z,99651.39
2017-09-14T21:32:47.347Z,99653.12
2017-09-14T21:35:22.682Z,99661.77
2017-09-14T21:37:55.781Z,99658.72
2017-09-14T21:40:30.857Z,99657.55
2017-09-14T21:43:04.492Z,99653.80
2017-09-14T21:48:12.819Z,99668.33
2017-09-14T21:50:44.776Z,99673.13
2017-09-14T21:53:19.077Z,99671.96
2017-09-14T21:55:50.533Z,99674.95
2017-09-14T21:58:23.340Z,99676.64
2017-09-14T22:00:58.514Z,99683.27
2017-09-14T22:03:31.422Z,99683.80
2017-09-14T22:06:02.882Z,99690.83
2017-09-14T22:08:37.020Z,99696.39
2017-09-14T22:11:08.608Z,99705.63
2017-09-14T22:13:54.400Z,99708.38
2017-09-14T22:16:39.984Z,99717.05
2017-09-14T22:19:25.578Z,99722.84
2017-09-14T22:22:06.621Z,99734.84
2017-09-14T22:24:47.770Z,99736.08
2017-09-14T22:27:29.735Z,99739.71
2017-09-14T22:30:01.707Z,99739.80
2017-09-14T22:32:33.053Z,99742.84
2017-09-14T22:35:03.777Z,99747.91
2017-09-14T22:37:36.621Z,99752.09
2017-09-14T22:40:07.903Z,99756.55
2017-09-14T22:42:41.031Z,99763.52
2017-09-14T22:45:11.726Z,99768.84
2017-09-14T22:47:45.004Z,99765.03
2017-09-14T22:50:20.123Z,99776.28
2017-09-14T22:52:51.252Z,99783.30
2017-09-14T22:55:23.784Z,99779.91
2017-09-14T22:57:55.657Z,99785.73
2017-09-14T23:00:28.760Z,99782.50
2017-09-14T23:03:01.799Z,99790.58
2017-09-14T23:05:40.345Z,99796.26
2017-09-14T23:08:11.756Z,99803.75
2017-09-14T23:10:45.845Z,99809.02
2017-09-14T23:13:18.499Z,99808.61
2017-09-14T23:15:54.351Z,99811.65
2017-09-14T23:18:23.643Z,99815.52
2017-09-14T23:20:56.966Z,99816.80
2017-09-14T23:23:28.534Z,99809.95
2017-09-14T23:26:00.229Z,99799.23
2017-09-14T23:28:35.110Z,99824.02
2017-09-14T23:31:07.279Z,99832.16
2017-09-14T23:33:37.437Z,99837.58
2017-09-14T23:36:09.270Z,99840.98
2017-09-14T23:38:39.725Z,99837.53
2017-09-14T23:41:11.429Z,99847.30
2017-09-14T23:43:42.929Z,99844.38
2017-09-14T23:46:15.414Z,99853.39
2017-09-14T23:48:48.060Z,99857.72
2017-09-14T23:51:22.392Z,99864.63
2017-09-14T23:53:54.064Z,99868.05
2017-09-14T23:56:26.208Z,99872.44
2017-09-14T23:58:59.139Z,99877.07
